Time;durP1;ratioP1;P1;durP2;ratioP2;P2;SDS_P1;SDS_P2;PMS_P1;PMS_P2;Temp;Humidity;BMP_temperature;BMP_pressure;BME280_temperature;BME280_humidity;BME280_pressure;Samples;Min_cycle;Max_cycle;Signal;HPM_P1;HPM_P2
2022/12/24 00:00:39;;;;;;;10.38;2.72;;;;;;;12.49;67.29;100084.94;4175562;28;20045;-64
2022/12/24 00:02:42;;;;;;;9.55;2.55;;;;;;;12.57;67.37;100092.75;4156153;28;20498;-65
2022/12/24 00:04:45;;;;;;;9.10;2.80;;;;;;;12.44;66.88;100093.63;4179702;28;20063;-65
2022/12/24 00:06:47;;;;;;;7.10;2.15;;;;;;;12.38;66.80;100097.97;4163521;28;20091;-64
2022/12/24 00:08:52;;;;;;;14.15;4.35;;;;;;;12.39;66.66;100088.41;4163510;28;20041;-63
2022/12/24 00:10:55;;;;;;;11.23;2.22;;;;;;;12.40;66.40;100091.00;4164632;28;20132;-63
2022/12/24 00:12:58;;;;;;;9.73;2.53;;;;;;;12.36;66.46;100097.06;4163148;28;20056;-64
2022/12/24 00:15:01;;;;;;;7.70;2.40;;;;;;;12.34;66.62;100109.25;4172850;28;20069;-64
2022/12/24 00:17:04;;;;;;;9.50;3.00;;;;;;;12.33;66.42;100107.50;4163209;28;20048;-64
2022/12/24 00:19:07;;;;;;;10.77;2.88;;;;;;;12.33;66.79;100114.47;4159544;28;20407;-64
2022/12/24 00:21:10;;;;;;;10.32;2.20;;;;;;;12.40;66.36;100105.78;4180268;28;20131;-64
2022/12/24 00:23:13;;;;;;;10.20;2.80;;;;;;;12.30;66.00;100123.16;4164582;28;20080;-63
2022/12/24 00:25:17;;;;;;;8.65;2.47;;;;;;;12.29;66.35;100125.75;4162702;28;20115;-64
2022/12/24 00:27:19;;;;;;;8.85;2.55;;;;;;;12.26;66.27;100128.34;4164546;28;20049;-63
2022/12/24 00:29:23;;;;;;;13.60;2.60;;;;;;;12.29;66.09;100133.56;4177477;28;20068;-64
2022/12/24 00:31:26;;;;;;;14.27;2.58;;;;;;;12.25;65.79;100135.31;4169351;28;20095;-64
2022/12/24 00:33:29;;;;;;;10.30;2.92;;;;;;;12.27;65.70;100141.38;4171192;28;20041;-64
2022/12/24 00:35:33;;;;;;;9.50;3.58;;;;;;;12.27;65.97;100137.91;4167778;28;20043;-64
2022/12/24 00:37:37;;;;;;;7.55;2.05;;;;;;;12.26;65.50;100141.38;4163290;28;20041;-64
2022/12/24 00:39:40;;;;;;;12.73;3.30;;;;;;;12.18;65.46;100131.81;4173292;28;20037;-64
2022/12/24 00:41:44;;;;;;;14.15;3.97;;;;;;;12.20;65.32;100145.69;4168168;28;20037;-63
2022/12/24 00:43:47;;;;;;;9.30;2.45;;;;;;;12.26;65.10;100146.59;4178746;28;20065;-64
2022/12/24 00:45:50;;;;;;;10.27;2.15;;;;;;;12.21;64.27;100157.88;4170862;28;20376;-63
2022/12/24 00:47:53;;;;;;;11.68;2.47;;;;;;;12.21;64.13;100157.88;4165214;28;20125;-64
2022/12/24 00:49:56;;;;;;;12.77;2.10;;;;;;;12.16;64.12;100164.81;4177615;28;20104;-64
2022/12/24 00:51:59;;;;;;;10.88;2.05;;;;;;;12.14;63.62;100166.53;4177574;28;20293;-63
2022/12/24 00:54:02;;;;;;;12.32;2.80;;;;;;;12.14;64.09;100165.69;4163754;28;20034;-64
2022/12/24 00:56:05;;;;;;;10.57;2.53;;;;;;;12.16;64.53;100170.03;4163907;28;20111;-63
2022/12/24 00:58:09;;;;;;;11.75;3.08;;;;;;;12.04;64.53;100165.63;4163637;28;20049;-67
2022/12/24 01:00:14;;;;;;;8.93;2.45;;;;;;;12.02;64.48;100166.50;4162665;28;20545;-64
2022/12/24 01:02:17;;;;;;;9.90;2.55;;;;;;;12.06;64.89;100163.03;4162744;28;20534;-64
2022/12/24 01:06:41;;;;;;;11.90;3.50;;;;;;;11.98;65.03;100181.25;4171101;28;20037;-64
2022/12/24 01:08:44;;;;;;;14.65;3.20;;;;;;;11.93;64.42;100179.44;4178447;28;20131;-64
2022/12/24 01:10:46;;;;;;;9.88;2.72;;;;;;;11.88;65.13;100185.53;4180442;28;20033;-65
2022/12/24 01:12:49;;;;;;;13.48;3.55;;;;;;;11.86;64.64;100176.84;4180423;28;20522;-64
2022/12/24 01:14:53;;;;;;;13.07;2.83;;;;;;;11.92;65.20;100172.53;4180077;28;20098;-65
2022/12/24 01:16:56;;;;;;;11.98;2.55;;;;;;;11.91;64.74;100153.41;4180434;28;20041;-64
2022/12/24 01:18:59;;;;;;;13.60;2.83;;;;;;;11.90;64.67;100169.03;4179165;28;20542;-64
2022/12/24 01:21:03;;;;;;;11.43;2.50;;;;;;;11.91;64.69;100170.78;4172969;28;20295;-65
2022/12/24 01:23:06;;;;;;;10.38;2.65;;;;;;;11.94;64.95;100176.88;4173176;28;20450;-64
2022/12/24 01:25:09;;;;;;;9.57;2.83;;;;;;;11.98;65.31;100175.19;4174354;28;20037;-66
2022/12/24 01:27:12;;;;;;;9.13;2.30;;;;;;;12.07;64.95;100179.56;4163863;28;20132;-65
2022/12/24 01:29:15;;;;;;;13.93;3.10;;;;;;;12.08;64.33;100195.19;4166817;28;20044;-65
2022/12/24 01:31:20;;;;;;;10.23;2.50;;;;;;;12.13;63.88;100193.47;4165176;28;20042;-65
2022/12/24 01:33:22;;;;;;;11.32;3.28;;;;;;;12.05;63.22;100192.56;4163461;28;20464;-64
2022/12/24 01:35:25;;;;;;;13.60;2.40;;;;;;;12.04;63.02;100189.09;4163857;28;20509;-65
2022/12/24 01:37:28;;;;;;;8.30;2.28;;;;;;;12.02;63.00;100197.78;4174145;28;20407;-65
2022/12/24 01:39:33;;;;;;;9.43;2.20;;;;;;;12.06;63.42;100207.31;4178421;28;20033;-64
2022/12/24 01:43:56;;;;;;;11.52;2.50;;;;;;;12.09;62.72;100222.09;4178040;28;20580;-64
2022/12/24 01:46:01;;;;;;;9.07;2.63;;;;;;;12.13;63.04;100223.88;4165436;28;20625;-64
2022/12/24 01:48:13;;;;;;;9.48;2.53;;;;;;;12.14;63.18;100234.28;4174297;28;20395;-64
2022/12/24 01:50:17;;;;;;;12.48;2.70;;;;;;;12.04;63.31;100253.34;4175173;28;20033;-64
2022/12/24 01:52:22;;;;;;;11.50;3.05;;;;;;;12.02;63.60;100245.53;4166667;28;20462;-64
2022/12/24 01:54:31;;;;;;;9.32;2.90;;;;;;;12.08;63.41;100255.13;4152663;28;20041;-64
2022/12/24 01:56:37;;;;;;;12.68;3.47;;;;;;;11.96;63.17;100257.66;4171527;28;20120;-65
2022/12/24 01:58:43;;;;;;;10.32;2.67;;;;;;;11.95;63.59;100258.53;4170614;28;20418;-65
2022/12/24 02:00:46;;;;;;;10.52;2.45;;;;;;;11.94;63.69;100255.03;4169856;28;20061;-64
2022/12/24 02:02:52;;;;;;;9.27;2.50;;;;;;;11.96;64.10;100260.25;4163595;28;20092;-65
2022/12/24 02:05:02;;;;;;;13.70;3.00;;;;;;;11.92;63.62;100272.38;4168545;28;20076;-65
2022/12/24 02:07:05;;;;;;;10.82;2.15;;;;;;;11.90;63.71;100286.25;4171295;28;20125;-64
2022/12/24 02:09:08;;;;;;;13.60;2.72;;;;;;;11.84;63.86;100277.53;4163499;28;20072;-64
2022/12/24 02:11:14;;;;;;;11.13;3.47;;;;;;;11.77;64.10;100294.00;4167951;28;20064;-65
2022/12/24 02:13:20;;;;;;;13.23;3.35;;;;;;;11.75;63.89;100282.69;4166229;28;20048;-64
2022/12/24 02:15:24;;;;;;;12.38;2.78;;;;;;;11.78;64.45;100287.03;4167571;28;20064;-65
2022/12/24 02:17:31;;;;;;;10.00;2.57;;;;;;;11.86;64.90;100281.03;4170588;28;20045;-65
2022/12/24 02:20:08;;;;;;;11.38;2.92;;;;;;;11.93;63.94;100278.44;4173496;28;20049;-65
2022/12/24 02:22:16;;;;;;;11.02;2.28;;;;;;;11.94;63.93;100277.63;4169076;28;20603;-65
2022/12/24 02:25:11;;;;;;;10.35;2.63;;;;;;;11.98;63.76;100274.19;4178853;28;20038;-65
2022/12/24 02:27:33;;;;;;;11.43;2.67;;;;;;;11.94;64.22;100268.06;4088810;29;20088;-65
2022/12/24 02:30:01;;;;;;;10.85;2.75;;;;;;;11.99;64.19;100281.13;4105469;28;20421;-65
2022/12/24 02:32:10;;;;;;;13.70;2.78;;;;;;;11.99;64.63;100282.00;4112539;28;20056;-65
2022/12/24 02:34:19;;;;;;;15.88;4.05;;;;;;;11.97;64.53;100282.84;4180425;28;20319;-65
2022/12/24 02:36:44;;;;;;;17.25;2.90;;;;;;;11.92;64.48;100279.31;4175949;28;20043;-65
2022/12/24 02:38:52;;;;;;;10.75;2.50;;;;;;;11.82;63.85;100287.06;4148489;28;20041;-65
2022/12/24 02:41:00;;;;;;;12.85;2.28;;;;;;;11.78;64.61;100292.25;4180805;28;20041;-65
2022/12/24 02:43:08;;;;;;;13.85;2.95;;;;;;;11.74;64.37;100293.97;4179748;28;20041;-64
2022/12/24 02:45:16;;;;;;;12.05;2.80;;;;;;;11.67;64.09;100286.97;4174580;28;20045;-64
2022/12/24 02:47:23;;;;;;;10.93;2.53;;;;;;;11.66;64.41;100283.50;4179677;28;20057;-64
2022/12/24 02:49:26;;;;;;;12.10;2.53;;;;;;;11.62;64.13;100284.34;4171021;28;20041;-64
2022/12/24 02:51:29;;;;;;;8.40;2.15;;;;;;;11.65;64.19;100280.88;4178772;28;20048;-65
2022/12/24 02:53:32;;;;;;;8.63;2.15;;;;;;;11.70;63.83;100280.06;4164404;28;20044;-65
2022/12/24 02:55:47;;;;;;;11.48;2.55;;;;;;;11.72;63.78;100287.88;4177645;28;20047;-66
2022/12/24 02:58:18;;;;;;;13.23;2.60;;;;;;;11.73;64.01;100274.00;4180898;28;20133;-64
2022/12/24 03:00:24;;;;;;;10.85;2.33;;;;;;;11.73;63.71;100284.41;4179364;28;20045;-64
2022/12/24 03:02:36;;;;;;;10.45;2.00;;;;;;;11.69;64.23;100295.66;4170970;28;20067;-64
2022/12/24 03:04:47;;;;;;;9.70;2.50;;;;;;;11.65;64.04;100297.38;4179929;28;20041;-64
2022/12/24 03:06:56;;;;;;;8.75;2.50;;;;;;;11.66;64.16;100306.06;4164565;28;20049;-64
2022/12/24 03:09:06;;;;;;;11.90;2.45;;;;;;;11.61;65.22;100307.75;4148431;28;20045;-64
2022/12/24 03:11:12;;;;;;;12.48;2.40;;;;;;;11.61;65.30;100307.75;4182190;28;20095;-64
2022/12/24 03:13:17;;;;;;;12.00;2.72;;;;;;;11.55;65.77;100305.09;4181314;28;20044;-64
2022/12/24 03:15:24;;;;;;;14.52;2.63;;;;;;;11.49;65.49;100306.81;4172592;28;20495;-64
2022/12/24 03:17:28;;;;;;;11.90;2.38;;;;;;;11.48;66.38;100310.28;4168826;28;20666;-64
2022/12/24 03:19:32;;;;;;;13.95;2.83;;;;;;;11.47;66.48;100305.91;4178674;28;20049;-65
2022/12/24 03:21:41;;;;;;;11.30;3.22;;;;;;;11.50;66.27;100303.31;4179219;28;20450;-64
2022/12/24 03:23:44;;;;;;;11.68;2.72;;;;;;;11.49;66.66;100300.72;4167376;28;20037;-64
2022/12/24 03:25:48;;;;;;;12.45;2.63;;;;;;;11.52;66.88;100305.94;4166054;28;20041;-64
2022/12/24 03:27:51;;;;;;;16.00;3.40;;;;;;;11.59;66.59;100299.06;4178745;28;20051;-64
2022/12/24 03:29:54;;;;;;;10.55;2.75;;;;;;;11.59;66.62;100297.31;4165347;28;20041;-64
2022/12/24 03:32:02;;;;;;;11.05;2.40;;;;;;;11.59;66.72;100317.28;4173939;28;20045;-64
2022/12/24 03:34:05;;;;;;;15.07;4.25;;;;;;;11.54;66.68;100325.06;4179778;28;20079;-64
2022/12/24 03:36:09;;;;;;;13.35;3.47;;;;;;;11.49;66.82;100317.22;4169475;28;20037;-63
2022/12/24 03:38:12;;;;;;;10.98;2.95;;;;;;;11.52;66.95;100311.16;4173818;28;20437;-66
2022/12/24 03:40:14;;;;;;;8.65;2.45;;;;;;;11.57;67.01;100309.47;4188546;28;20410;-64
2022/12/24 03:42:17;;;;;;;14.23;2.60;;;;;;;11.61;66.66;100310.34;4181829;28;20095;-64
2022/12/24 03:44:20;;;;;;;21.50;3.60;;;;;;;11.59;67.00;100304.28;4181161;28;20113;-65
2022/12/24 03:46:23;;;;;;;13.10;2.90;;;;;;;11.56;66.31;100305.13;4181523;28;20041;-64
2022/12/24 03:48:27;;;;;;;10.90;3.53;;;;;;;11.60;67.04;100308.63;4180225;28;20045;-64
2022/12/24 03:50:34;;;;;;;14.07;2.58;;;;;;;11.60;66.93;100313.84;4181480;28;20414;-66
2022/12/24 03:52:37;;;;;;;15.68;3.97;;;;;;;11.64;66.99;100311.25;4178961;28;20040;-64
2022/12/24 03:54:40;;;;;;;18.13;3.10;;;;;;;11.69;66.46;100308.69;4170327;28;20103;-65
2022/12/24 03:56:43;;;;;;;12.77;3.55;;;;;;;11.72;66.43;100315.66;4163707;28;20037;-64
2022/12/24 03:58:46;;;;;;;16.67;3.15;;;;;;;11.65;66.63;100335.56;4172307;28;20067;-64
2022/12/24 04:00:48;;;;;;;18.20;3.55;;;;;;;11.60;66.79;100325.13;4173010;28;20037;-64
2022/12/24 04:02:51;;;;;;;12.27;3.03;;;;;;;11.68;66.32;100317.34;4180004;28;20075;-64
2022/12/24 04:04:56;;;;;;;13.10;2.70;;;;;;;11.72;65.94;100311.31;4180167;28;20124;-64
2022/12/24 04:06:59;;;;;;;21.15;3.88;;;;;;;11.72;66.26;100319.13;4170151;28;20045;-64
2022/12/24 04:09:03;;;;;;;17.60;3.00;;;;;;;11.68;66.60;100313.03;4171055;28;20045;-64
2022/12/24 04:11:08;;;;;;;15.93;3.70;;;;;;;11.70;66.45;100326.94;4178156;28;20041;-64
2022/12/24 04:13:11;;;;;;;14.15;2.70;;;;;;;11.67;66.48;100320.84;4164537;28;20065;-64
2022/12/24 04:15:14;;;;;;;19.15;4.40;;;;;;;11.72;67.18;100315.66;4170094;28;20524;-64
2022/12/24 04:17:18;;;;;;;14.48;3.25;;;;;;;11.74;67.15;100317.41;4167731;28;20049;-64
2022/12/24 04:19:20;;;;;;;14.38;3.17;;;;;;;11.77;66.64;100311.34;4177572;28;20091;-64
2022/12/24 04:21:25;;;;;;;14.52;3.42;;;;;;;11.77;66.89;100329.56;4168110;28;20076;-64
2022/12/24 04:23:30;;;;;;;20.80;5.15;;;;;;;11.73;66.97;100330.44;4179412;28;20040;-65
2022/12/24 04:25:34;;;;;;;22.23;4.22;;;;;;;11.71;67.09;100325.22;4168274;28;20037;-65
2022/12/24 04:27:37;;;;;;;16.20;3.95;;;;;;;11.68;66.89;100333.88;4175020;28;20047;-64
2022/12/24 04:29:40;;;;;;;15.85;3.65;;;;;;;11.69;67.15;100343.41;4164470;28;20037;-65
2022/12/24 04:31:42;;;;;;;12.73;3.35;;;;;;;11.73;67.22;100346.91;4172255;28;20398;-65
2022/12/24 04:33:46;;;;;;;15.80;3.10;;;;;;;11.82;67.36;100357.38;4177608;28;20442;-65
2022/12/24 04:35:49;;;;;;;16.75;3.40;;;;;;;11.77;66.96;100359.09;4170157;28;20121;-65
2022/12/24 04:37:53;;;;;;;11.60;3.58;;;;;;;11.79;67.87;100354.78;4172876;28;20052;-64
2022/12/24 04:39:56;;;;;;;17.35;4.10;;;;;;;11.73;67.96;100356.47;4176046;28;20128;-64
2022/12/24 04:41:58;;;;;;;16.77;3.85;;;;;;;11.73;67.77;100357.34;4165219;28;20045;-64
2022/12/24 04:44:01;;;;;;;13.85;3.40;;;;;;;11.82;67.98;100359.13;4163366;28;20248;-64
2022/12/24 04:46:05;;;;;;;14.57;3.33;;;;;;;11.88;67.76;100362.66;4173447;28;20099;-64
2022/12/24 04:48:08;;;;;;;14.40;3.17;;;;;;;11.85;68.44;100353.94;4164088;28;20033;-64
2022/12/24 04:50:11;;;;;;;13.63;3.35;;;;;;;11.86;68.58;100347.88;4169585;28;20044;-65
2022/12/24 04:52:14;;;;;;;12.70;2.70;;;;;;;11.88;68.92;100357.47;4169674;28;20033;-65
2022/12/24 04:54:18;;;;;;;12.85;3.10;;;;;;;11.94;68.69;100361.00;4169791;28;20025;-65
2022/12/24 04:56:25;;;;;;;18.13;3.72;;;;;;;11.92;69.14;100363.56;4164186;28;20033;-64
2022/12/24 04:58:29;;;;;;;13.70;3.60;;;;;;;11.94;68.60;100355.78;4168007;28;20060;-65
2022/12/24 05:00:32;;;;;;;12.40;2.45;;;;;;;11.94;68.76;100340.16;4165676;28;20045;-65
2022/12/24 05:02:36;;;;;;;10.88;2.33;;;;;;;11.92;69.03;100347.06;4162118;28;20279;-64
2022/12/24 05:04:39;;;;;;;16.90;3.93;;;;;;;11.86;69.15;100343.53;4163708;28;20030;-64
2022/12/24 05:06:42;;;;;;;16.13;3.13;;;;;;;11.84;69.49;100340.06;4183361;28;20310;-64
2022/12/24 05:08:45;;;;;;;19.45;3.53;;;;;;;11.83;69.79;100340.91;4164633;28;20091;-64
2022/12/24 05:10:56;;;;;;;15.93;3.55;;;;;;;11.81;69.78;100342.66;4173946;28;20499;-64
2022/12/24 05:12:59;;;;;;;16.95;3.03;;;;;;;11.75;70.06;100344.31;4172542;28;20136;-64
2022/12/24 05:15:03;;;;;;;11.68;2.83;;;;;;;11.67;70.39;100344.28;4163606;28;20048;-64
2022/12/24 05:17:05;;;;;;;20.20;3.70;;;;;;;11.58;70.22;100359.81;4168127;28;20067;-64
2022/12/24 05:19:08;;;;;;;18.75;3.15;;;;;;;11.48;71.24;100353.66;4161653;28;20601;-64
2022/12/24 05:21:14;;;;;;;11.93;3.25;;;;;;;11.43;71.01;100361.41;4166896;28;20550;-64
2022/12/24 05:28:01;;;;;;;15.95;3.78;;;;;;;11.33;72.13;100359.56;4163921;28;20479;-64
2022/12/24 05:30:05;;;;;;;18.92;3.60;;;;;;;11.32;71.71;100350.91;4166265;28;20037;-64
2022/12/24 05:32:08;;;;;;;20.30;4.20;;;;;;;11.28;72.33;100345.66;4167575;28;20051;-66
2022/12/24 05:34:12;;;;;;;17.10;4.57;;;;;;;11.25;72.40;100337.84;4172524;28;20044;-64
2022/12/24 05:36:15;;;;;;;17.67;3.85;;;;;;;11.31;71.69;100335.28;4174314;28;20036;-64
2022/12/24 05:38:18;;;;;;;14.63;3.83;;;;;;;11.33;72.06;100341.34;4168201;28;20329;-64
2022/12/24 05:40:21;;;;;;;14.55;3.75;;;;;;;11.39;71.94;100349.25;4163819;28;20068;-64
2022/12/24 05:42:24;;;;;;;15.07;3.05;;;;;;;11.41;71.63;100357.94;4168345;28;20043;-65
2022/12/24 05:44:28;;;;;;;15.70;2.85;;;;;;;11.39;71.15;100371.78;4169253;28;20068;-64
2022/12/24 05:46:31;;;;;;;20.17;4.68;;;;;;;11.40;71.14;100374.41;4176173;28;20396;-64
2022/12/24 05:48:34;;;;;;;17.17;3.97;;;;;;;11.43;71.07;100376.16;4178871;28;20517;-64
2022/12/24 05:50:40;;;;;;;17.52;3.80;;;;;;;11.46;70.37;100376.19;4174248;28;20053;-64
2022/12/24 05:52:42;;;;;;;21.15;4.22;;;;;;;11.49;70.43;100387.53;4175061;28;20037;-64
2022/12/24 05:54:45;;;;;;;15.20;3.55;;;;;;;11.47;70.06;100391.81;4178281;28;20035;-64
2022/12/24 05:56:48;;;;;;;18.52;3.58;;;;;;;11.52;70.17;100392.75;4181622;28;20103;-64
2022/12/24 05:58:52;;;;;;;21.25;4.22;;;;;;;11.57;69.93;100394.53;4165775;28;20045;-64
2022/12/24 06:00:57;;;;;;;18.98;4.28;;;;;;;11.62;69.63;100395.44;4174901;28;20507;-64
2022/12/24 06:02:59;;;;;;;14.90;4.13;;;;;;;11.60;69.59;100402.38;4174764;28;20049;-64
2022/12/24 06:05:02;;;;;;;12.05;3.00;;;;;;;11.47;70.53;100402.22;4181933;28;20079;-64
2022/12/24 06:07:05;;;;;;;18.48;4.75;;;;;;;11.45;71.01;100398.75;4180979;28;20037;-64
2022/12/24 06:09:08;;;;;;;14.27;3.58;;;;;;;11.49;71.25;100395.31;4174071;28;20044;-64
2022/12/24 06:11:14;;;;;;;16.52;3.42;;;;;;;11.49;70.93;100397.03;4176643;28;20049;-64
2022/12/24 06:13:17;;;;;;;16.50;3.85;;;;;;;11.48;70.29;100398.78;4165050;28;20381;-64
2022/12/24 06:15:20;;;;;;;14.25;3.13;;;;;;;11.40;70.36;100400.44;4166247;28;20041;-65
2022/12/24 06:17:27;;;;;;;13.70;3.55;;;;;;;11.36;71.11;100398.69;4168918;28;20276;-65
2022/12/24 06:19:30;;;;;;;16.20;3.75;;;;;;;11.30;71.00;100402.09;4166367;28;20396;-65
2022/12/24 06:21:33;;;;;;;20.95;3.88;;;;;;;11.30;71.78;100402.09;4166412;28;20045;-64
2022/12/24 06:23:38;;;;;;;15.15;3.80;;;;;;;11.22;71.86;100406.31;4165996;28;20037;-64
2022/12/24 06:25:41;;;;;;;13.40;3.42;;;;;;;11.12;71.85;100412.28;4166321;28;20450;-64
2022/12/24 06:27:44;;;;;;;18.15;4.40;;;;;;;11.11;72.63;100411.44;4166346;28;20041;-64
2022/12/24 06:29:47;;;;;;;18.05;3.80;;;;;;;11.14;72.45;100413.16;4166715;28;20064;-65
2022/12/24 06:31:49;;;;;;;24.55;4.75;;;;;;;11.17;72.02;100410.63;4172005;28;20223;-64
2022/12/24 06:33:54;;;;;;;19.25;4.10;;;;;;;11.25;72.57;100414.16;4169633;28;20131;-65
2022/12/24 06:35:56;;;;;;;24.17;4.78;;;;;;;11.25;71.77;100415.91;4169593;28;20526;-64
2022/12/24 06:38:00;;;;;;;16.38;3.33;;;;;;;11.23;72.04;100415.00;4182423;28;20449;-66
2022/12/24 06:40:03;;;;;;;17.90;4.15;;;;;;;11.17;71.83;100421.91;4173019;28;20342;-65
2022/12/24 06:42:06;;;;;;;15.40;3.72;;;;;;;11.15;72.66;100415.78;4181370;28;20120;-65
2022/12/24 06:44:08;;;;;;;19.27;4.82;;;;;;;11.13;71.95;100430.50;4166742;28;20407;-65
2022/12/24 06:46:11;;;;;;;13.07;3.75;;;;;;;11.08;72.27;100433.91;4174162;28;20545;-65
2022/12/24 06:48:16;;;;;;;13.57;4.35;;;;;;;11.08;72.25;100439.13;4177608;28;20045;-65
2022/12/24 06:50:20;;;;;;;16.23;4.10;;;;;;;11.02;73.32;100439.06;4169394;28;20041;-65
2022/12/24 06:52:23;;;;;;;19.85;4.03;;;;;;;11.02;72.53;100446.84;4174162;28;20036;-64
2022/12/24 06:54:26;;;;;;;23.38;4.78;;;;;;;11.11;73.22;100444.34;4171826;28;20463;-65
2022/12/24 06:56:29;;;;;;;18.08;3.65;;;;;;;11.14;72.29;100440.06;4169203;28;20116;-65
2022/12/24 06:58:33;;;;;;;12.02;3.38;;;;;;;11.15;72.23;100452.22;4165412;28;20057;-65
2022/12/24 07:00:36;;;;;;;18.73;4.32;;;;;;;11.14;72.21;100452.19;4174735;28;20494;-65
2022/12/24 07:02:39;;;;;;;16.20;4.45;;;;;;;11.12;72.87;100457.38;4180949;28;20552;-66
2022/12/24 07:04:42;;;;;;;19.98;4.25;;;;;;;11.09;72.78;100467.75;4164415;28;20049;-66
2022/12/24 07:06:46;;;;;;;17.60;4.20;;;;;;;11.04;72.90;100459.03;4166817;28;20068;-65
2022/12/24 07:08:49;;;;;;;17.85;4.65;;;;;;;11.04;72.42;100461.63;4150502;28;20049;-66
2022/12/24 07:10:53;;;;;;;16.60;4.82;;;;;;;11.05;72.67;100468.56;4181245;28;20095;-65
2022/12/24 07:12:56;;;;;;;20.10;4.70;;;;;;;11.05;72.51;100471.16;4170958;28;20052;-65
2022/12/24 07:14:59;;;;;;;20.75;4.75;;;;;;;11.12;72.71;100478.19;4168747;28;20483;-65
2022/12/24 07:17:04;;;;;;;18.58;4.75;;;;;;;11.17;72.16;100473.94;4175059;28;20041;-65
2022/12/24 07:19:07;;;;;;;12.75;4.00;;;;;;;11.17;72.02;100468.72;4177636;28;20128;-65
2022/12/24 07:21:10;;;;;;;19.27;4.70;;;;;;;11.17;71.91;100466.13;4180739;28;20045;-66
2022/12/24 07:23:14;;;;;;;18.50;4.40;;;;;;;11.21;71.99;100468.75;4147973;28;20140;-64
2022/12/24 07:25:17;;;;;;;17.23;4.57;;;;;;;11.16;72.68;100477.38;4175449;28;20103;-64
2022/12/24 07:27:20;;;;;;;17.20;4.22;;;;;;;11.18;71.95;100473.09;4174544;28;20037;-64
2022/12/24 07:29:23;;;;;;;24.60;5.50;;;;;;;11.22;71.96;100473.13;4176948;28;20111;-65
2022/12/24 07:31:26;;;;;;;21.75;5.10;;;;;;;11.21;72.09;100472.22;4179877;28;20037;-66
2022/12/24 07:33:29;;;;;;;14.43;4.85;;;;;;;11.15;72.30;100472.16;4178672;28;20135;-65
2022/12/24 07:35:32;;;;;;;17.85;3.97;;;;;;;11.11;72.37;100467.78;4179806;28;20064;-65
2022/12/24 07:37:35;;;;;;;16.70;4.40;;;;;;;11.13;71.64;100479.09;4170430;28;20037;-65
2022/12/24 07:39:39;;;;;;;20.60;5.07;;;;;;;11.11;72.69;100475.56;4181733;28;20037;-65
2022/12/24 07:41:43;;;;;;;19.73;3.85;;;;;;;11.10;72.35;100481.66;4175319;28;20090;-65
2022/12/24 07:43:48;;;;;;;22.67;4.75;;;;;;;11.05;72.59;100486.78;4162953;28;20045;-65
2022/12/24 07:45:54;;;;;;;16.42;4.40;;;;;;;11.05;72.73;100486.78;4165008;28;20061;-65
2022/12/24 07:47:57;;;;;;;22.00;4.25;;;;;;;11.02;72.29;100489.34;4165079;28;20087;-65
2022/12/24 07:50:00;;;;;;;20.88;5.78;;;;;;;11.06;72.99;100490.28;4172925;28;20083;-63
2022/12/24 07:52:03;;;;;;;18.23;4.32;;;;;;;11.00;72.72;100484.13;4178899;28;20033;-63
2022/12/24 07:54:05;;;;;;;16.60;3.58;;;;;;;10.98;73.21;100496.25;4182198;28;20323;-64
2022/12/24 07:56:10;;;;;;;26.20;5.63;;;;;;;11.00;72.37;100498.88;4174887;28;20115;-64
2022/12/24 07:58:14;;;;;;;10.43;3.33;;;;;;;11.02;73.24;100507.56;4164907;28;20048;-64
2022/12/24 08:00:18;;;;;;;18.25;4.88;;;;;;;11.06;73.14;100505.88;4174375;28;20125;-64
2022/12/24 08:02:21;;;;;;;22.20;5.57;;;;;;;11.07;72.65;100508.50;4149160;28;20037;-64
2022/12/24 08:04:24;;;;;;;18.77;4.20;;;;;;;11.07;73.23;100511.09;4180343;28;20128;-65
2022/12/24 08:06:27;;;;;;;14.57;3.50;;;;;;;11.10;72.59;100516.34;4174900;28;20033;-65
2022/12/24 08:08:29;;;;;;;14.45;3.72;;;;;;;11.16;72.97;100520.75;4168805;28;20099;-64
2022/12/24 08:10:32;;;;;;;19.85;3.97;;;;;;;11.15;72.48;100530.28;4167538;28;20471;-65
2022/12/24 08:12:41;;;;;;;26.65;4.60;;;;;;;11.12;72.26;100539.78;4168909;28;20056;-65
2022/12/24 08:14:44;;;;;;;20.13;5.05;;;;;;;11.08;72.55;100525.88;4180124;28;20406;-66
2022/12/24 08:16:47;;;;;;;23.42;4.53;;;;;;;11.09;72.58;100535.41;4166448;28;20499;-64
2022/12/24 08:18:51;;;;;;;16.45;3.70;;;;;;;11.05;72.41;100538.81;4164905;28;20491;-65
2022/12/24 08:20:54;;;;;;;26.85;6.80;;;;;;;11.12;72.96;100530.22;4171712;28;20414;-64
2022/12/24 08:22:56;;;;;;;14.63;4.10;;;;;;;11.18;72.03;100526.84;4175837;28;20041;-64
2022/12/24 08:24:59;;;;;;;25.70;5.05;;;;;;;11.21;72.62;100518.22;4169027;28;20553;-63
2022/12/24 08:27:02;;;;;;;20.85;4.35;;;;;;;11.25;72.64;100520.84;4171841;28;20526;-64
2022/12/24 08:29:06;;;;;;;18.20;4.47;;;;;;;11.30;72.20;100520.91;4167488;28;20037;-64
2022/12/24 08:31:09;;;;;;;23.95;5.55;;;;;;;11.31;72.03;100514.84;4171421;28;20505;-64
2022/12/24 08:33:12;;;;;;;29.00;5.40;;;;;;;11.29;72.40;100511.38;4170806;28;20063;-65
2022/12/24 08:35:15;;;;;;;21.52;4.57;;;;;;;11.29;71.79;100516.59;4179446;28;20697;-65
2022/12/24 08:37:18;;;;;;;19.52;4.70;;;;;;;11.25;72.31;100517.41;4171359;28;20494;-64
2022/12/24 08:39:21;;;;;;;20.90;5.43;;;;;;;11.26;72.28;100516.56;4168825;28;20038;-64
2022/12/24 08:41:24;;;;;;;17.05;4.28;;;;;;;11.35;71.76;100516.66;4170317;28;20039;-64
2022/12/24 08:43:27;;;;;;;23.95;4.75;;;;;;;11.26;71.68;100522.63;4163635;28;20442;-65
2022/12/24 08:45:31;;;;;;;23.60;4.38;;;;;;;11.32;71.28;100511.41;4172597;28;20029;-64
2022/12/24 08:47:42;;;;;;;24.35;5.25;;;;;;;11.37;71.32;100512.31;4177880;28;20119;-65
2022/12/24 08:49:45;;;;;;;23.85;4.75;;;;;;;11.33;71.40;100510.53;4166016;28;20067;-65
2022/12/24 08:51:48;;;;;;;18.02;4.25;;;;;;;11.34;71.61;100513.16;4170292;28;20056;-65
2022/12/24 08:53:51;;;;;;;19.45;4.05;;;;;;;11.31;71.15;100517.47;4166071;28;20538;-65
2022/12/24 08:56:01;;;;;;;18.92;4.40;;;;;;;11.32;71.77;100527.03;4180606;28;20099;-65
2022/12/24 08:58:04;;;;;;;21.08;4.30;;;;;;;11.38;71.58;100527.09;4172319;28;20072;-65
2022/12/24 09:00:09;;;;;;;19.83;4.43;;;;;;;11.43;71.33;100521.94;4163571;28;20045;-65
2022/12/24 09:02:13;;;;;;;19.15;4.90;;;;;;;11.45;71.05;100526.31;4170574;28;20035;-64
2022/12/24 09:04:16;;;;;;;25.40;4.95;;;;;;;11.48;71.04;100530.69;4167962;28;20049;-64
2022/12/24 09:06:19;;;;;;;17.75;5.57;;;;;;;11.48;70.85;100534.16;4170059;28;20041;-64
2022/12/24 09:08:22;;;;;;;21.02;5.20;;;;;;;11.59;71.01;100549.88;4168666;28;20091;-65
2022/12/24 09:10:25;;;;;;;19.25;4.13;;;;;;;11.53;71.38;100552.44;4167335;28;20037;-65
2022/12/24 09:12:28;;;;;;;20.42;4.28;;;;;;;11.56;70.64;100556.81;4170266;28;20060;-65
2022/12/24 09:14:31;;;;;;;18.00;4.15;;;;;;;11.61;71.06;100556.00;4162880;28;20518;-66
2022/12/24 09:16:33;;;;;;;17.42;4.07;;;;;;;11.65;70.98;100559.50;4167213;28;20033;-65
2022/12/24 09:18:38;;;;;;;17.77;3.58;;;;;;;11.70;70.77;100565.66;4173143;28;20033;-64
2022/12/24 09:20:41;;;;;;;19.73;3.90;;;;;;;11.59;71.41;100564.66;4181357;28;20064;-65
2022/12/24 09:22:48;;;;;;;22.30;5.15;;;;;;;11.66;70.87;100569.94;4171647;28;20080;-69
2022/12/24 09:24:53;;;;;;;19.08;4.72;;;;;;;11.60;70.95;100574.22;4166905;28;20048;-69
2022/12/24 09:26:56;;;;;;;;;;;;;;;11.62;71.17;100572.50;4173852;28;20087;-69
2022/12/24 09:29:00;;;;;;;20.08;5.22;;;;;;;11.62;71.60;100583.81;4175211;28;19920;-64
2022/12/24 09:31:04;;;;;;;23.55;5.05;;;;;;;11.67;71.18;100581.25;4172233;28;20072;-67
2022/12/24 09:33:07;;;;;;;20.13;5.63;;;;;;;11.67;71.20;100591.66;4169519;28;20037;-67
2022/12/24 09:35:11;;;;;;;18.05;4.03;;;;;;;11.70;71.46;100604.72;4172611;28;20535;-67
2022/12/24 09:37:14;;;;;;;22.42;4.70;;;;;;;11.86;71.08;100598.81;4166195;28;20029;-67
2022/12/24 09:39:17;;;;;;;19.30;5.03;;;;;;;11.86;71.22;100603.16;4173115;28;20527;-64
2022/12/24 09:41:37;;;;;;;22.98;5.60;;;;;;;11.85;71.61;100607.47;4177467;28;20104;-70
2022/12/24 09:43:47;;;;;;;24.05;5.38;;;;;;;11.86;71.75;100619.66;4172893;28;20087;-68